Time;durP1;ratioP1;P1;durP2;ratioP2;P2;SDS_P1;SDS_P2;PMS_P1;PMS_P2;Temp;Humidity;BMP_temperature;BMP_pressure;BME280_temperature;BME280_humidity;BME280_pressure;Samples;Min_cycle;Max_cycle;Signal;HPM_P1;HPM_P2
2023/06/13 00:00:10;;;;;;;3.03;2.80;;;28.10;30.00;;;;;;5106281;27;45374;-69
2023/06/13 00:02:38;;;;;;;3.00;2.63;;;28.00;30.00;;;;;;5106116;27;45410;-69
2023/06/13 00:05:06;;;;;;;2.70;2.50;;;28.00;30.00;;;;;;5106701;27;45188;-69
2023/06/13 00:07:37;;;;;;;3.08;2.78;;;28.00;30.00;;;;;;5106254;27;46406;-69
2023/06/13 00:10:05;;;;;;;2.83;2.53;;;28.00;30.00;;;;;;5106211;27;45328;-69
2023/06/13 00:12:34;;;;;;;3.10;2.80;;;27.90;30.00;;;;;;5106459;27;45561;-69
2023/06/13 00:15:02;;;;;;;3.83;2.35;;;27.90;30.00;;;;;;5106460;27;45465;-70
2023/06/13 00:17:29;;;;;;;2.70;2.50;;;27.90;30.00;;;;;;5098101;27;45260;-69
2023/06/13 00:19:56;;;;;;;2.58;2.38;;;27.90;30.00;;;;;;5085558;27;45304;-69
2023/06/13 00:22:24;;;;;;;2.95;2.65;;;27.90;30.10;;;;;;5085646;27;45438;-69
2023/06/13 00:24:51;;;;;;;3.05;2.85;;;27.80;30.10;;;;;;5085836;27;45409;-69
2023/06/13 00:27:18;;;;;;;2.65;2.42;;;27.80;30.10;;;;;;5092741;27;46169;-70
2023/06/13 00:29:46;;;;;;;2.65;2.45;;;27.80;30.10;;;;;;5106236;27;45260;-70
2023/06/13 00:32:13;;;;;;;2.60;2.40;;;27.80;30.10;;;;;;5106136;27;45346;-70
2023/06/13 00:34:40;;;;;;;2.70;2.50;;;27.70;30.10;;;;;;5106504;27;45341;-69
2023/06/13 00:37:09;;;;;;;2.83;2.63;;;27.70;30.20;;;;;;5105792;27;47416;-69
2023/06/13 00:39:36;;;;;;;2.30;2.20;;;27.70;30.20;;;;;;5105834;27;45316;-69
2023/06/13 00:42:03;;;;;;;2.78;2.58;;;27.70;30.20;;;;;;5105840;27;45400;-69
2023/06/13 00:44:30;;;;;;;2.97;2.67;;;27.70;30.30;;;;;;5106097;27;45560;-69
2023/06/13 00:46:58;;;;;;;2.80;2.60;;;27.60;30.20;;;;;;5105640;27;45409;-69
2023/06/13 00:49:25;;;;;;;2.65;2.45;;;27.60;30.30;;;;;;5105656;27;45315;-69
2023/06/13 00:51:52;;;;;;;2.95;2.65;;;27.60;30.30;;;;;;5105917;27;45232;-69
2023/06/13 00:54:21;;;;;;;2.80;2.60;;;27.60;30.30;;;;;;5109635;27;45414;-69
2023/06/13 00:56:48;;;;;;;2.50;2.30;;;27.60;30.30;;;;;;5109101;27;47924;-69
2023/06/13 00:59:15;;;;;;;2.40;2.20;;;27.50;30.30;;;;;;5109085;27;45314;-69
2023/06/13 01:01:43;;;;;;;2.83;2.42;;;27.50;30.30;;;;;;5109070;27;45379;-70
2023/06/13 01:04:13;;;;;;;3.40;2.60;;;27.50;30.40;;;;;;5109399;27;45338;-69
2023/06/13 01:06:40;;;;;;;2.80;2.55;;;27.50;30.40;;;;;;5109062;27;45295;-69
2023/06/13 01:09:08;;;;;;;2.85;2.65;;;27.50;30.40;;;;;;5109065;27;45445;-69
2023/06/13 01:11:45;;;;;;;2.40;2.20;;;27.40;30.40;;;;;;5109248;27;45363;-69
2023/06/13 01:14:16;;;;;;;2.55;2.35;;;27.40;30.40;;;;;;5109244;27;45580;-69
2023/06/13 01:16:45;;;;;;;2.78;2.58;;;27.40;30.50;;;;;;5107496;27;46374;-69
2023/06/13 01:19:18;;;;;;;2.35;2.17;;;27.40;30.50;;;;;;5088489;27;45446;-69
2023/06/13 01:21:45;;;;;;;2.40;2.22;;;27.40;30.50;;;;;;5088504;27;45387;-69
2023/06/13 01:24:19;;;;;;;2.55;2.35;;;27.30;30.60;;;;;;5088642;27;45316;-70
2023/06/13 01:26:49;;;;;;;3.20;2.50;;;27.30;30.60;;;;;;5090820;27;45429;-71
2023/06/13 01:29:16;;;;;;;2.53;2.22;;;27.30;30.60;;;;;;5108669;27;45339;-69
2023/06/13 01:31:43;;;;;;;2.45;2.25;;;27.30;30.60;;;;;;5108858;27;45391;-69
2023/06/13 01:34:10;;;;;;;2.50;2.30;;;27.30;30.70;;;;;;5108992;27;45408;-68
2023/06/13 01:36:37;;;;;;;2.63;2.42;;;27.20;30.60;;;;;;5108525;27;45450;-68
2023/06/13 01:39:04;;;;;;;2.60;2.40;;;27.20;30.70;;;;;;5108459;27;45330;-68
2023/06/13 01:41:31;;;;;;;2.50;2.30;;;27.20;30.70;;;;;;5108727;27;45260;-68
2023/06/13 01:43:59;;;;;;;2.85;2.38;;;27.20;30.70;;;;;;5108717;27;45400;-68
2023/06/13 01:46:27;;;;;;;2.47;2.28;;;27.10;30.70;;;;;;5108349;27;46663;-68
2023/06/13 01:49:01;;;;;;;2.47;2.28;;;27.10;30.80;;;;;;5108392;27;45320;-68
2023/06/13 01:51:30;;;;;;;2.85;2.28;;;27.10;30.80;;;;;;5108569;27;45488;-68
2023/06/13 01:54:01;;;;;;;2.30;2.10;;;27.10;30.80;;;;;;5108645;27;45336;-68
2023/06/13 01:56:31;;;;;;;2.47;2.28;;;27.10;30.90;;;;;;5108510;27;47675;-68
2023/06/13 01:59:01;;;;;;;2.45;2.25;;;27.00;30.80;;;;;;5108415;27;45299;-68
2023/06/13 02:01:28;;;;;;;2.50;2.30;;;27.00;30.80;;;;;;5108138;27;45310;-68
2023/06/13 02:03:55;;;;;;;2.70;2.50;;;27.00;30.90;;;;;;5104858;27;45325;-68
2023/06/13 02:06:22;;;;;;;2.50;2.30;;;27.00;30.90;;;;;;5108108;27;45252;-68
2023/06/13 02:08:49;;;;;;;2.40;2.20;;;26.90;30.90;;;;;;5108028;27;44729;-68
2023/06/13 02:11:16;;;;;;;4.15;2.30;;;26.90;31.30;;;;;;5108485;27;45430;-67
2023/06/13 02:13:43;;;;;;;2.85;2.30;;;26.90;31.00;;;;;;5108352;27;45676;-68
2023/06/13 02:16:12;;;;;;;2.40;2.20;;;26.90;31.00;;;;;;5107932;27;45481;-68
2023/06/13 02:18:39;;;;;;;2.40;2.17;;;26.90;31.00;;;;;;5090076;27;45334;-68
2023/06/13 02:21:06;;;;;;;3.03;2.17;;;26.90;31.10;;;;;;5087692;27;45406;-68
2023/06/13 02:23:33;;;;;;;2.33;2.17;;;26.80;31.00;;;;;;5087620;27;45463;-67
2023/06/13 02:26:00;;;;;;;2.25;2.10;;;26.80;31.00;;;;;;5087211;27;45627;-68
2023/06/13 02:28:26;;;;;;;2.47;2.28;;;26.80;31.10;;;;;;5104049;27;45324;-68
2023/06/13 02:30:53;;;;;;;2.25;2.15;;;26.80;31.10;;;;;;5107964;27;45390;-69
2023/06/13 02:33:21;;;;;;;2.22;2.05;;;26.70;31.70;;;;;;5107977;27;45369;-68
2023/06/13 02:35:48;;;;;;;2.58;2.30;;;26.70;31.10;;;;;;5107692;27;47614;-68
2023/06/13 02:38:15;;;;;;;2.45;2.25;;;26.70;31.10;;;;;;5107601;27;45280;-68
2023/06/13 02:40:42;;;;;;;1.90;1.80;;;26.70;31.10;;;;;;5107616;27;45259;-68
2023/06/13 02:43:09;;;;;;;2.47;2.28;;;26.70;31.10;;;;;;5107916;27;45366;-68
2023/06/13 02:45:36;;;;;;;2.53;2.33;;;26.60;31.20;;;;;;5107543;27;45454;-68
2023/06/13 02:48:03;;;;;;;2.35;2.03;;;26.60;31.10;;;;;;5107371;27;45456;-68
2023/06/13 02:50:31;;;;;;;2.45;2.25;;;26.60;31.20;;;;;;5107546;27;45400;-68
2023/06/13 02:52:58;;;;;;;2.60;2.40;;;26.60;31.20;;;;;;5107862;27;45367;-68
2023/06/13 02:55:25;;;;;;;2.42;2.30;;;26.60;31.30;;;;;;5107314;27;47323;-68
2023/06/13 02:57:52;;;;;;;2.55;1.98;;;26.50;31.20;;;;;;5107208;27;45567;-68
2023/06/13 03:00:19;;;;;;;2.10;2.00;;;26.50;31.20;;;;;;5107420;27;45386;-68
2023/06/13 03:02:46;;;;;;;2.17;1.98;;;26.50;31.20;;;;;;5107696;27;45326;-68
2023/06/13 03:05:14;;;;;;;2.55;2.20;;;26.50;31.20;;;;;;5107140;27;45398;-68
2023/06/13 03:07:42;;;;;;;2.40;2.20;;;26.50;31.30;;;;;;5107157;27;45336;-68
2023/06/13 03:10:09;;;;;;;2.15;2.05;;;26.50;31.30;;;;;;5107220;27;45324;-68
2023/06/13 03:12:36;;;;;;;2.30;2.10;;;26.40;31.30;;;;;;5107473;27;45415;-67
2023/06/13 03:15:04;;;;;;;2.85;2.55;;;26.40;31.30;;;;;;5106839;27;46343;-67
2023/06/13 03:17:30;;;;;;;2.42;2.15;;;26.40;31.30;;;;;;5098877;27;45296;-68
2023/06/13 03:19:57;;;;;;;2.28;2.08;;;26.40;31.40;;;;;;5086548;27;45402;-68
2023/06/13 03:22:24;;;;;;;2.25;2.10;;;26.40;31.40;;;;;;5086949;27;45272;-68
2023/06/13 03:24:52;;;;;;;2.30;2.10;;;26.30;31.40;;;;;;5086352;27;46422;-67
2023/06/13 03:27:19;;;;;;;2.47;2.28;;;26.30;32.00;;;;;;5093601;27;45285;-68
2023/06/13 03:29:47;;;;;;;2.33;2.13;;;26.30;31.40;;;;;;5106917;27;45255;-68
2023/06/13 03:32:13;;;;;;;2.30;2.10;;;26.30;31.40;;;;;;5107056;27;45408;-68
2023/06/13 03:34:40;;;;;;;2.45;2.20;;;26.20;31.40;;;;;;5106848;27;45404;-68
2023/06/13 03:37:07;;;;;;;2.40;2.20;;;26.20;31.40;;;;;;5106644;27;45365;-68
2023/06/13 03:39:34;;;;;;;1.95;1.85;;;26.20;31.40;;;;;;5106746;27;45385;-68
2023/06/13 03:42:03;;;;;;;2.13;1.90;;;26.20;31.50;;;;;;5106926;27;45367;-68
2023/06/13 03:44:30;;;;;;;2.58;2.38;;;26.20;31.50;;;;;;5106436;27;46701;-68
2023/06/13 03:46:56;;;;;;;2.40;2.20;;;26.20;31.50;;;;;;5106500;27;45316;-68
2023/06/13 03:49:23;;;;;;;2.30;2.10;;;26.10;31.50;;;;;;5106473;27;45273;-69
2023/06/13 03:51:50;;;;;;;2.30;2.13;;;26.10;31.50;;;;;;5106834;27;45559;-68
2023/06/13 03:54:17;;;;;;;2.15;1.75;;;26.10;31.50;;;;;;5106419;27;47304;-68
2023/06/13 03:56:44;;;;;;;2.33;2.13;;;26.10;31.50;;;;;;5106423;27;45455;-68
2023/06/13 03:59:12;;;;;;;3.15;2.40;;;26.10;31.60;;;;;;5106378;27;45419;-68
2023/06/13 04:01:41;;;;;;;2.22;2.03;;;26.00;31.60;;;;;;5106376;27;45306;-68
2023/06/13 04:04:08;;;;;;;2.50;2.30;;;26.00;31.60;;;;;;5106114;27;45499;-68
2023/06/13 04:06:37;;;;;;;2.42;2.17;;;26.00;31.60;;;;;;5106313;27;45335;-68
2023/06/13 04:09:05;;;;;;;2.30;2.10;;;26.00;31.60;;;;;;5106310;27;45309;-68
2023/06/13 04:11:32;;;;;;;1.90;1.80;;;26.00;31.70;;;;;;5106405;27;45438;-68
2023/06/13 04:13:59;;;;;;;2.65;2.10;;;26.00;31.70;;;;;;5106185;27;45440;-69
2023/06/13 04:16:28;;;;;;;2.10;1.90;;;26.00;31.70;;;;;;5106255;27;45257;-68
2023/06/13 04:18:55;;;;;;;2.15;1.98;;;26.00;31.70;;;;;;5086339;27;45202;-68
2023/06/13 04:21:24;;;;;;;2.17;2.08;;;25.90;31.70;;;;;;5085837;27;45402;-68
2023/06/13 04:23:51;;;;;;;2.25;2.05;;;25.90;31.70;;;;;;5085367;28;45309;-69
2023/06/13 04:26:18;;;;;;;2.10;1.90;;;25.90;31.80;;;;;;5085443;27;45268;-68
2023/06/13 04:28:45;;;;;;;2.63;2.30;;;25.90;31.70;;;;;;5104243;27;45303;-68
2023/06/13 04:31:12;;;;;;;3.50;2.00;;;25.90;31.80;;;;;;5106294;27;45370;-68
2023/06/13 04:33:40;;;;;;;2.28;2.08;;;25.90;31.80;;;;;;5105779;27;45354;-68
2023/06/13 04:36:08;;;;;;;2.10;2.00;;;25.90;31.80;;;;;;5106081;27;45318;-69
2023/06/13 04:38:37;;;;;;;2.22;2.03;;;25.90;31.80;;;;;;5105818;27;45228;-69
2023/06/13 04:41:04;;;;;;;2.83;2.20;;;25.90;31.90;;;;;;5106139;27;45357;-68
2023/06/13 04:43:33;;;;;;;2.25;2.05;;;25.80;31.80;;;;;;5105636;27;45445;-68
2023/06/13 04:46:03;;;;;;;2.15;1.90;;;25.80;31.80;;;;;;5105859;27;45298;-68
2023/06/13 04:48:31;;;;;;;3.13;2.38;;;25.80;31.80;;;;;;5105876;27;45501;-69
2023/06/13 04:50:59;;;;;;;2.17;1.92;;;25.80;31.80;;;;;;5105965;27;45323;-68
2023/06/13 04:53:27;;;;;;;2.25;2.05;;;25.80;31.90;;;;;;5105572;27;45322;-68
2023/06/13 04:55:53;;;;;;;2.97;2.00;;;25.80;31.90;;;;;;5105572;27;45392;-68
2023/06/13 04:58:20;;;;;;;2.47;2.20;;;25.80;31.90;;;;;;5105579;27;45310;-69
2023/06/13 05:00:48;;;;;;;2.05;1.95;;;25.80;31.90;;;;;;5105968;27;45243;-69
2023/06/13 05:03:16;;;;;;;2.00;1.90;;;25.80;31.80;;;;;;5104986;27;47593;-68
2023/06/13 05:05:44;;;;;;;2.25;2.05;;;25.80;31.90;;;;;;5105384;27;45333;-68
2023/06/13 05:08:13;;;;;;;2.10;1.90;;;25.80;31.90;;;;;;5105550;27;45488;-68
2023/06/13 05:10:41;;;;;;;2.30;2.10;;;25.70;31.80;;;;;;5105765;27;45395;-69
2023/06/13 05:13:08;;;;;;;1.95;1.85;;;25.70;31.80;;;;;;5105231;27;46702;-68
2023/06/13 05:15:36;;;;;;;2.67;1.80;;;25.70;31.90;;;;;;5105406;27;45366;-69
2023/06/13 05:18:06;;;;;;;2.47;2.10;;;25.70;31.90;;;;;;5092804;27;45223;-69
2023/06/13 05:20:33;;;;;;;2.28;2.08;;;25.70;31.90;;;;;;5085005;27;45650;-67
2023/06/13 05:23:01;;;;;;;1.70;1.60;;;25.70;31.90;;;;;;5084804;27;47338;-68
2023/06/13 05:25:30;;;;;;;2.17;1.98;;;25.70;31.90;;;;;;5084791;27;45260;-69
2023/06/13 05:27:57;;;;;;;3.63;2.47;;;25.70;31.90;;;;;;5097465;27;45400;-69
2023/06/13 05:30:23;;;;;;;1.75;1.65;;;25.70;31.90;;;;;;5105500;27;45396;-69
2023/06/13 05:32:51;;;;;;;1.77;1.67;;;25.70;31.90;;;;;;5105063;27;45419;-68
2023/06/13 05:35:18;;;;;;;2.00;1.90;;;25.70;32.00;;;;;;5105159;27;45304;-68
2023/06/13 05:37:46;;;;;;;2.20;2.00;;;25.70;32.00;;;;;;5105211;27;45317;-67
2023/06/13 05:40:13;;;;;;;2.30;2.10;;;25.70;32.00;;;;;;5107144;27;45552;-68
2023/06/13 05:42:41;;;;;;;2.47;2.00;;;25.70;32.00;;;;;;5108477;27;46765;-67
2023/06/13 05:45:09;;;;;;;1.95;1.85;;;25.70;32.00;;;;;;5108480;27;45331;-68
2023/06/13 05:47:36;;;;;;;2.30;2.10;;;25.70;31.90;;;;;;5108500;27;45312;-68
2023/06/13 05:50:03;;;;;;;2.13;1.92;;;25.70;32.00;;;;;;5108766;27;45361;-67
2023/06/13 05:52:30;;;;;;;2.17;1.98;;;25.70;32.00;;;;;;5108265;27;46416;-68
2023/06/13 05:54:57;;;;;;;2.33;2.13;;;25.70;32.00;;;;;;5108457;27;45372;-67
2023/06/13 05:57:25;;;;;;;2.50;1.92;;;25.70;32.00;;;;;;5108359;27;45322;-67
2023/06/13 05:59:53;;;;;;;2.35;2.17;;;25.70;32.00;;;;;;5108820;27;45322;-67
2023/06/13 06:02:20;;;;;;;4.90;2.20;;;25.70;32.00;;;;;;5107796;27;45369;-67
2023/06/13 06:04:47;;;;;;;4.88;2.42;;;25.70;31.80;;;;;;5107960;27;45410;-67
2023/06/13 06:07:13;;;;;;;3.35;2.58;;;25.60;30.90;;;;;;5108269;27;45302;-67
2023/06/13 06:09:40;;;;;;;4.55;2.63;;;25.60;30.40;;;;;;5108471;27;45337;-67
2023/06/13 06:12:08;;;;;;;5.10;2.63;;;25.40;30.10;;;;;;5107867;27;45302;-68
2023/06/13 06:14:35;;;;;;;5.07;2.30;;;25.30;30.30;;;;;;5107911;27;45303;-67
2023/06/13 06:17:03;;;;;;;2.60;2.40;;;25.30;30.40;;;;;;5103440;27;45309;-66
2023/06/13 06:19:30;;;;;;;3.15;2.85;;;25.30;30.50;;;;;;5087691;27;45318;-66
2023/06/13 06:21:57;;;;;;;2.58;2.25;;;25.30;30.30;;;;;;5087177;27;46329;-69
2023/06/13 06:24:24;;;;;;;2.78;2.35;;;25.30;30.30;;;;;;5087197;27;45512;-67
2023/06/13 06:26:51;;;;;;;2.60;2.40;;;25.30;30.20;;;;;;5090544;27;45388;-66
2023/06/13 06:29:21;;;;;;;4.03;2.10;;;25.30;30.30;;;;;;5107780;27;45500;-67
2023/06/13 06:31:47;;;;;;;3.15;2.38;;;25.20;30.20;;;;;;5107458;27;45336;-67
2023/06/13 06:34:16;;;;;;;3.40;2.42;;;25.20;30.20;;;;;;5107411;27;45370;-67
2023/06/13 06:36:42;;;;;;;2.30;2.10;;;25.10;30.40;;;;;;5107764;27;45361;-69
2023/06/13 06:39:09;;;;;;;3.35;2.42;;;25.10;30.40;;;;;;5107753;27;45172;-66
2023/06/13 06:41:36;;;;;;;2.85;2.50;;;25.10;30.20;;;;;;5107186;27;46631;-67
2023/06/13 06:44:03;;;;;;;3.20;2.15;;;25.10;30.10;;;;;;5107196;27;45269;-68
2023/06/13 06:46:30;;;;;;;3.75;2.60;;;25.10;30.00;;;;;;5107680;27;45319;-68
2023/06/13 06:48:57;;;;;;;4.60;2.38;;;25.10;30.60;;;;;;5107401;27;45366;-67
2023/06/13 06:51:25;;;;;;;3.15;2.42;;;25.10;30.00;;;;;;5106696;27;46451;-69
2023/06/13 06:53:52;;;;;;;2.65;2.20;;;25.10;30.00;;;;;;5107279;27;45298;-69
2023/06/13 06:56:18;;;;;;;2.78;2.08;;;25.10;30.10;;;;;;5107422;27;45516;-69
2023/06/13 06:58:45;;;;;;;2.85;2.45;;;25.10;30.00;;;;;;5107430;27;45364;-69
2023/06/13 07:01:14;;;;;;;5.03;2.20;;;25.10;30.60;;;;;;5106869;27;46275;-70
2023/06/13 07:03:41;;;;;;;2.67;2.47;;;25.10;30.00;;;;;;5106888;27;45276;-69
2023/06/13 07:06:07;;;;;;;2.85;2.40;;;25.10;30.00;;;;;;5107164;27;45215;-68
2023/06/13 07:08:36;;;;;;;3.05;2.45;;;25.10;30.00;;;;;;5107006;27;45598;-66
2023/06/13 07:11:03;;;;;;;2.55;2.35;;;25.10;30.00;;;;;;5106838;27;46760;-67
2023/06/13 07:13:30;;;;;;;2.90;2.30;;;25.10;30.00;;;;;;5106897;27;45369;-67
2023/06/13 07:15:56;;;;;;;2.88;2.42;;;25.10;29.90;;;;;;5107114;27;45334;-67
2023/06/13 07:18:23;;;;;;;3.63;2.50;;;25.10;30.00;;;;;;5107010;27;45324;-67
2023/06/13 07:20:50;;;;;;;3.00;2.70;;;25.00;30.00;;;;;;5106672;27;46650;-67
2023/06/13 07:23:17;;;;;;;2.47;2.10;;;25.00;30.10;;;;;;5105951;27;45308;-68
2023/06/13 07:25:45;;;;;;;3.13;2.45;;;25.10;30.20;;;;;;5106874;27;45366;-68
2023/06/13 07:28:12;;;;;;;4.38;2.80;;;25.10;30.10;;;;;;5091911;27;45430;-68
2023/06/13 07:30:39;;;;;;;3.80;2.70;;;25.10;30.10;;;;;;5086036;27;46318;-68
2023/06/13 07:33:06;;;;;;;3.35;2.88;;;25.10;30.20;;;;;;5086158;27;44921;-68
2023/06/13 07:35:32;;;;;;;4.40;2.92;;;25.20;30.30;;;;;;5086252;27;45370;-68
2023/06/13 07:37:59;;;;;;;2.50;2.25;;;25.10;30.00;;;;;;5086345;27;45378;-68
2023/06/13 07:40:26;;;;;;;2.97;2.63;;;25.10;30.20;;;;;;5085976;27;45471;-67
2023/06/13 07:42:54;;;;;;;3.13;2.83;;;25.10;30.30;;;;;;5085968;27;45322;-66
2023/06/13 07:45:21;;;;;;;3.45;2.40;;;25.10;30.50;;;;;;5086015;27;45479;-67
2023/06/13 07:47:48;;;;;;;2.90;2.40;;;25.10;30.60;;;;;;5086186;27;45466;-67
2023/06/13 07:50:16;;;;;;;4.00;2.40;;;25.10;30.50;;;;;;5085737;27;45220;-68
2023/06/13 07:52:43;;;;;;;3.40;2.47;;;25.10;30.50;;;;;;5085841;27;45260;-68
2023/06/13 07:55:10;;;;;;;2.63;2.42;;;25.10;30.50;;;;;;5085892;27;45332;-67
2023/06/13 07:57:37;;;;;;;3.63;2.75;;;25.10;30.50;;;;;;5085904;27;45469;-67
2023/06/13 08:00:12;;;;;;;3.08;2.60;;;25.10;30.60;;;;;;5085533;27;47464;-68
2023/06/13 08:02:39;;;;;;;2.47;2.20;;;25.10;30.60;;;;;;5084289;27;45509;-67
2023/06/13 08:05:07;;;;;;;3.45;2.42;;;25.20;30.60;;;;;;5085627;27;45127;-69
2023/06/13 08:07:33;;;;;;;3.38;2.60;;;25.20;30.70;;;;;;5085900;27;45638;-69
2023/06/13 08:10:00;;;;;;;5.75;2.78;;;25.20;30.70;;;;;;5085391;27;45388;-69
2023/06/13 08:12:27;;;;;;;3.90;2.53;;;25.20;30.50;;;;;;5085790;27;45405;-69
2023/06/13 08:14:54;;;;;;;3.22;2.85;;;25.20;30.60;;;;;;5085599;27;45427;-69
2023/06/13 08:17:24;;;;;;;2.70;2.35;;;25.20;30.70;;;;;;5092195;27;45415;-69
2023/06/13 08:19:51;;;;;;;5.68;2.50;;;25.20;30.70;;;;;;5105512;27;46590;-69
2023/06/13 08:22:18;;;;;;;2.80;2.42;;;25.30;30.60;;;;;;5105628;27;45407;-69
2023/06/13 08:24:45;;;;;;;3.95;3.05;;;25.30;30.40;;;;;;5106061;27;45427;-70
2023/06/13 08:27:13;;;;;;;2.90;2.55;;;25.30;30.50;;;;;;5106265;27;45520;-70
2023/06/13 08:29:41;;;;;;;2.50;2.30;;;25.30;30.50;;;;;;5105679;27;46319;-71
2023/06/13 08:32:08;;;;;;;3.17;2.50;;;25.30;30.60;;;;;;5105648;27;45323;-70
2023/06/13 08:34:37;;;;;;;3.08;2.42;;;25.30;30.70;;;;;;5105823;27;45275;-70
2023/06/13 08:37:05;;;;;;;3.55;2.78;;;25.40;30.70;;;;;;5105923;27;45295;-70
2023/06/13 08:39:32;;;;;;;2.85;2.40;;;25.30;30.60;;;;;;5105467;27;45411;-70
2023/06/13 08:41:58;;;;;;;3.03;2.20;;;25.30;30.50;;;;;;5105625;27;45443;-69
2023/06/13 08:44:26;;;;;;;6.35;2.55;;;25.40;30.50;;;;;;5105793;27;45305;-70
2023/06/13 08:46:52;;;;;;;5.22;2.60;;;25.50;30.60;;;;;;5104843;27;45412;-70
2023/06/13 08:49:19;;;;;;;3.30;2.60;;;25.50;30.60;;;;;;5105743;27;47689;-70
2023/06/13 08:51:48;;;;;;;2.80;2.15;;;25.40;30.60;;;;;;5105478;27;45441;-70
2023/06/13 08:54:15;;;;;;;4.38;2.55;;;25.40;30.60;;;;;;5105614;27;45378;-70
2023/06/13 08:56:42;;;;;;;2.97;2.53;;;25.40;30.70;;;;;;5105743;27;45449;-69
2023/06/13 08:59:09;;;;;;;3.10;2.30;;;25.50;30.70;;;;;;5104981;27;46592;-69
2023/06/13 09:01:37;;;;;;;4.60;2.70;;;25.50;30.80;;;;;;5104996;27;45356;-70
2023/06/13 09:04:04;;;;;;;6.22;2.58;;;25.50;30.70;;;;;;5105427;27;45399;-69
2023/06/13 09:06:33;;;;;;;3.10;2.50;;;25.50;30.70;;;;;;5102923;27;45261;-70
2023/06/13 09:09:01;;;;;;;4.07;2.75;;;25.50;30.60;;;;;;5105200;27;45475;-70
2023/06/13 09:11:28;;;;;;;3.97;2.25;;;25.50;30.70;;;;;;5105277;27;45454;-69
2023/06/13 09:13:57;;;;;;;3.95;2.80;;;25.60;30.70;;;;;;5106929;27;45378;-69
2023/06/13 09:16:25;;;;;;;4.30;2.42;;;25.70;30.70;;;;;;5109036;27;45273;-69
2023/06/13 09:18:52;;;;;;;4.72;2.78;;;25.70;30.70;;;;;;5108769;27;45410;-69
2023/06/13 09:21:20;;;;;;;2.70;2.47;;;25.70;30.70;;;;;;5109940;27;45295;-69
2023/06/13 09:23:47;;;;;;;7.25;3.08;;;25.70;30.70;;;;;;5110132;27;45286;-69
2023/06/13 09:26:15;;;;;;;3.65;2.70;;;25.70;30.60;;;;;;5110012;27;45438;-71
2023/06/13 09:28:43;;;;;;;3.80;2.67;;;25.80;30.50;;;;;;5090551;27;47274;-70
2023/06/13 09:31:10;;;;;;;5.88;2.60;;;25.90;30.60;;;;;;5088633;27;45362;-68
2023/06/13 09:33:37;;;;;;;3.35;2.80;;;25.90;30.50;;;;;;5089012;27;45270;-69
2023/06/13 09:36:06;;;;;;;3.50;2.22;;;25.90;30.50;;;;;;5089358;27;45330;-70
2023/06/13 09:38:34;;;;;;;2.63;2.30;;;26.00;30.60;;;;;;5088999;27;46678;-70
2023/06/13 09:41:03;;;;;;;2.92;2.40;;;26.00;30.40;;;;;;5089050;27;45323;-70
2023/06/13 09:43:31;;;;;;;3.33;2.50;;;26.00;30.30;;;;;;5089258;27;45300;-70
2023/06/13 09:45:58;;;;;;;4.35;2.63;;;26.10;30.40;;;;;;5089244;27;45431;-69
2023/06/13 09:48:25;;;;;;;3.55;2.60;;;26.00;30.40;;;;;;5088764;27;45324;-70
2023/06/13 09:50:51;;;;;;;4.80;2.78;;;26.10;30.20;;;;;;5089040;27;45273;-70
2023/06/13 09:53:18;;;;;;;3.47;2.83;;;26.10;30.20;;;;;;5089346;27;45243;-70
2023/06/13 09:55:45;;;;;;;5.15;2.75;;;26.10;30.20;;;;;;5089182;27;45302;-71
2023/06/13 09:58:12;;;;;;;5.05;2.63;;;26.10;30.30;;;;;;5088702;27;47091;-69
2023/06/13 10:00:40;;;;;;;4.20;2.65;;;26.20;30.50;;;;;;5096820;27;45349;-68
2023/06/13 10:03:08;;;;;;;3.53;2.65;;;26.20;30.30;;;;;;5100536;27;45215;-69
2023/06/13 10:05:35;;;;;;;4.43;2.70;;;26.30;30.50;;;;;;5098899;27;45619;-69
2023/06/13 10:08:01;;;;;;;3.25;2.47;;;26.30;30.10;;;;;;5088982;27;45306;-68
2023/06/13 10:10:29;;;;;;;3.97;2.58;;;26.30;30.00;;;;;;5105113;27;45311;-69
2023/06/13 10:12:59;;;;;;;2.78;2.47;;;26.40;30.00;;;;;;5109512;27;45354;-70
2023/06/13 10:15:29;;;;;;;2.70;2.45;;;26.40;30.00;;;;;;5109931;27;45275;-69
2023/06/13 10:17:59;;;;;;;2.60;2.40;;;26.40;30.00;;;;;;5109359;27;46415;-69
2023/06/13 10:20:25;;;;;;;5.07;2.67;;;26.40;29.80;;;;;;5108536;27;45264;-68
2023/06/13 10:22:52;;;;;;;3.47;2.40;;;26.50;29.80;;;;;;5109518;27;45393;-69
2023/06/13 10:25:19;;;;;;;4.45;2.45;;;26.50;30.30;;;;;;5108514;27;45317;-68
2023/06/13 10:27:50;;;;;;;3.25;2.60;;;26.50;30.20;;;;;;5108967;27;46616;-68
2023/06/13 10:30:26;;;;;;;3.33;2.58;;;26.50;29.90;;;;;;5109124;27;45372;-68
2023/06/13 10:33:13;;;;;;;4.32;2.60;;;26.60;29.70;;;;;;5109363;27;45369;-70
2023/06/13 10:35:53;;;;;;;4.45;2.80;;;26.70;29.60;;;;;;5109340;27;45286;-68
2023/06/13 10:38:48;;;;;;;3.83;2.63;;;26.80;29.60;;;;;;5108911;27;45252;-69
2023/06/13 10:41:48;;;;;;;3.40;2.70;;;26.90;29.70;;;;;;5108868;27;45247;-68
2023/06/13 10:44:18;;;;;;;8.18;2.65;;;27.00;29.90;;;;;;5106422;27;45301;-68
2023/06/13 10:46:45;;;;;;;2.85;2.53;;;27.10;29.90;;;;;;5109317;27;45126;-68
2023/06/13 10:49:16;;;;;;;4.38;2.50;;;27.20;29.90;;;;;;5108896;27;46588;-71
2023/06/13 10:51:43;;;;;;;3.08;2.40;;;27.20;29.90;;;;;;5108444;27;45211;-70
2023/06/13 10:54:11;;;;;;;2.92;2.65;;;27.30;29.90;;;;;;5109613;27;45206;-68
2023/06/13 10:56:39;;;;;;;3.28;2.53;;;27.40;29.90;;;;;;5109055;27;45412;-69
2023/06/13 10:59:06;;;;;;;2.45;2.25;;;27.40;29.90;;;;;;5108556;27;45574;-69
2023/06/13 11:01:34;;;;;;;4.60;2.33;;;27.50;29.90;;;;;;5108235;27;45209;-69
2023/06/13 11:04:08;;;;;;;2.47;2.28;;;27.50;29.80;;;;;;5108438;27;45219;-69
2023/06/13 11:06:36;;;;;;;2.90;2.33;;;27.60;29.80;;;;;;5108207;27;44740;-69
2023/06/13 11:09:19;;;;;;;2.90;2.58;;;27.60;29.80;;;;;;5108088;27;46356;-69
2023/06/13 11:11:50;;;;;;;3.65;2.55;;;27.70;29.80;;;;;;5108172;27;45346;-69
2023/06/13 11:14:17;;;;;;;5.70;2.50;;;27.80;29.90;;;;;;5108444;27;45345;-70
2023/06/13 11:16:45;;;;;;;3.00;2.47;;;27.80;29.90;;;;;;5108406;27;45337;-70
2023/06/13 11:19:15;;;;;;;2.90;2.55;;;27.90;29.90;;;;;;5108072;27;46893;-70
2023/06/13 11:21:47;;;;;;;4.30;2.40;;;27.90;29.80;;;;;;5108125;27;45191;-70
2023/06/13 11:24:17;;;;;;;4.25;2.42;;;28.00;29.80;;;;;;5108269;27;45405;-70
2023/06/13 11:26:44;;;;;;;4.20;2.53;;;28.00;29.70;;;;;;5102643;27;45426;-71
2023/06/13 11:29:12;;;;;;;5.22;2.30;;;28.10;29.70;;;;;;5087148;27;46412;-70
2023/06/13 11:31:40;;;;;;;6.18;2.67;;;28.10;29.70;;;;;;5087426;27;45365;-70
2023/06/13 11:34:07;;;;;;;4.28;2.15;;;28.20;29.60;;;;;;5087459;27;45402;-70
2023/06/13 11:36:37;;;;;;;5.18;2.78;;;28.20;29.40;;;;;;5087448;27;45282;-71
2023/06/13 11:39:06;;;;;;;3.63;2.53;;;28.30;29.40;;;;;;5087099;27;46676;-70
2023/06/13 11:41:33;;;;;;;4.65;2.72;;;28.30;29.20;;;;;;5088716;27;45257;-70
2023/06/13 11:43:59;;;;;;;3.05;2.50;;;28.40;29.20;;;;;;5088031;27;45219;-71
2023/06/13 11:46:26;;;;;;;6.70;2.30;;;28.50;29.20;;;;;;5092926;27;45384;-71
2023/06/13 11:48:56;;;;;;;2.80;2.17;;;28.50;29.00;;;;;;5107428;27;46457;-70
2023/06/13 11:51:23;;;;;;;5.88;2.75;;;28.60;29.10;;;;;;5107883;27;45364;-70
2023/06/13 11:53:50;;;;;;;5.18;2.33;;;28.60;29.00;;;;;;5106967;27;45431;-70
2023/06/13 11:56:19;;;;;;;6.05;3.08;;;28.70;28.90;;;;;;5107913;27;45253;-70
2023/06/13 11:58:46;;;;;;;4.35;2.60;;;28.80;28.90;;;;;;5090902;27;46595;-70
2023/06/13 12:01:15;;;;;;;4.65;2.47;;;28.80;29.20;;;;;;5087129;27;45367;-70
2023/06/13 12:03:43;;;;;;;2.50;2.30;;;28.90;28.60;;;;;;5087005;27;45380;-70
2023/06/13 12:06:11;;;;;;;3.72;2.58;;;29.00;28.70;;;;;;5097544;27;45652;-71
2023/06/13 12:08:40;;;;;;;2.80;2.33;;;29.00;28.60;;;;;;5107046;27;45290;-70
2023/06/13 12:11:07;;;;;;;2.45;2.25;;;29.10;28.50;;;;;;5107357;27;45192;-70
2023/06/13 12:13:36;;;;;;;3.30;2.17;;;29.10;28.50;;;;;;5104549;27;45303;-70
2023/06/13 12:16:03;;;;;;;3.13;2.50;;;29.20;28.50;;;;;;5107724;27;45434;-71
2023/06/13 12:18:30;;;;;;;3.95;2.70;;;29.20;28.30;;;;;;5107526;27;45271;-71
2023/06/13 12:20:59;;;;;;;2.75;2.20;;;29.30;28.30;;;;;;5106251;27;45215;-71
2023/06/13 12:23:26;;;;;;;3.20;2.80;;;29.30;28.30;;;;;;5086822;27;45396;-70
2023/06/13 12:25:53;;;;;;;3.85;2.60;;;29.40;28.30;;;;;;5086692;27;45472;-70
2023/06/13 12:28:20;;;;;;;2.60;2.40;;;29.50;28.20;;;;;;5102115;27;46352;-70
2023/06/13 12:30:49;;;;;;;2.42;2.20;;;29.50;28.30;;;;;;5106935;27;45225;-71
2023/06/13 12:33:18;;;;;;;2.60;2.40;;;29.50;28.10;;;;;;5107048;27;45314;-71
2023/06/13 12:35:52;;;;;;;4.63;2.42;;;29.60;28.00;;;;;;5107263;27;45241;-70
2023/06/13 12:38:20;;;;;;;4.00;2.50;;;29.60;28.00;;;;;;5106860;27;45292;-70
2023/06/13 12:40:51;;;;;;;2.45;2.22;;;29.70;27.90;;;;;;5106659;27;45306;-70
2023/06/13 12:43:18;;;;;;;2.30;2.10;;;29.80;27.80;;;;;;5107099;27;45316;-71
2023/06/13 12:45:45;;;;;;;3.55;2.58;;;29.80;27.70;;;;;;5106238;27;45339;-70
2023/06/13 12:48:18;;;;;;;5.53;2.78;;;29.90;27.70;;;;;;5106831;27;45185;-71
2023/06/13 12:50:44;;;;;;;5.22;2.60;;;29.90;27.70;;;;;;5110439;27;45298;-70